Time;durP1;ratioP1;P1;durP2;ratioP2;P2;SDS_P1;SDS_P2;PMS_P1;PMS_P2;Temp;Humidity;BMP_temperature;BMP_pressure;BME280_temperature;BME280_humidity;BME280_pressure;Samples;Min_cycle;Max_cycle;Signal;HPM_P1;HPM_P2
2023/04/05 00:00:58;;;;;;;1999.90;999.90;;;5.30;99.90;;;;;;5012126;28;20412;-75
2023/04/05 00:03:24;;;;;;;1999.90;999.90;;;5.20;99.90;;;;;;5011565;28;20176;-75
2023/04/05 00:05:53;;;;;;;1999.90;999.90;;;5.30;99.90;;;;;;5012096;28;20203;-75
2023/04/05 00:08:22;;;;;;;1999.90;999.90;;;5.20;99.90;;;;;;5011934;28;20455;-75
2023/04/05 00:10:49;;;;;;;1999.90;999.90;;;5.20;99.90;;;;;;5012004;28;20451;-74
2023/04/05 00:13:15;;;;;;;1999.90;999.90;;;5.20;99.90;;;;;;5011513;28;20573;-75
2023/04/05 00:15:41;;;;;;;1999.90;999.90;;;5.20;99.90;;;;;;5012003;28;20404;-75
2023/04/05 00:18:06;;;;;;;1999.90;999.90;;;5.10;99.90;;;;;;5011747;28;20424;-75
2023/04/05 00:20:32;;;;;;;1999.90;999.90;;;5.10;99.90;;;;;;5011985;28;20165;-74
2023/04/05 00:22:58;;;;;;;1999.90;999.90;;;5.00;99.90;;;;;;5014669;28;20241;-75
2023/04/05 00:25:25;;;;;;;1999.90;999.90;;;5.00;99.90;;;;;;5015892;28;20166;-74
2023/04/05 00:27:50;;;;;;;1999.90;999.90;;;5.00;99.90;;;;;;5015666;28;20507;-75
2023/04/05 00:30:19;;;;;;;1999.90;999.90;;;5.00;99.90;;;;;;5015851;28;20446;-75
2023/04/05 00:32:48;;;;;;;1999.90;999.90;;;4.90;99.90;;;;;;5015691;28;20682;-75
2023/04/05 00:35:15;;;;;;;1999.90;999.90;;;4.80;99.90;;;;;;5015131;28;20404;-75
2023/04/05 00:37:40;;;;;;;1999.90;999.90;;;4.90;99.90;;;;;;5015374;28;20420;-75
2023/04/05 00:40:06;;;;;;;1999.90;999.90;;;4.80;99.90;;;;;;5015739;28;20407;-75
2023/04/05 00:42:32;;;;;;;1999.90;999.90;;;4.70;99.90;;;;;;5015660;28;20545;-75
2023/04/05 00:44:58;;;;;;;1999.90;999.90;;;4.80;99.90;;;;;;5015098;28;20418;-76
2023/04/05 00:47:23;;;;;;;1999.90;999.90;;;4.80;99.90;;;;;;5015239;28;20586;-76
2023/04/05 00:49:49;;;;;;;1999.90;999.90;;;4.70;99.90;;;;;;5015481;28;20253;-77
2023/04/05 00:52:16;;;;;;;1999.90;999.90;;;4.70;99.90;;;;;;5015372;28;20316;-75
2023/04/05 00:54:43;;;;;;;1999.90;999.90;;;4.70;99.90;;;;;;5015005;28;20161;-75
2023/04/05 00:57:09;;;;;;;1999.90;999.90;;;4.70;99.90;;;;;;5015140;28;20414;-75
2023/04/05 00:59:35;;;;;;;1999.90;999.90;;;4.70;99.90;;;;;;5015261;28;20436;-75
2023/04/05 01:02:12;;;;;;;1999.90;999.90;;;4.70;99.90;;;;;;5015170;28;20412;-75
2023/04/05 01:04:40;;;;;;;1999.90;999.90;;;4.80;99.90;;;;;;5014774;28;20172;-75
2023/04/05 01:07:18;;;;;;;1999.90;999.90;;;4.70;99.90;;;;;;5014753;28;20436;-76
2023/04/05 01:09:58;;;;;;;1999.90;999.90;;;4.80;99.90;;;;;;5015132;28;20487;-75
2023/04/05 01:12:32;;;;;;;1999.90;999.90;;;4.80;99.90;;;;;;5015017;28;20506;-76
2023/04/05 01:14:59;;;;;;;1999.90;999.90;;;4.80;99.90;;;;;;5014569;28;20414;-75
2023/04/05 01:17:27;;;;;;;1999.90;999.90;;;4.80;99.90;;;;;;5014717;28;20424;-75
2023/04/05 01:19:58;;;;;;;1999.90;999.90;;;4.80;99.90;;;;;;5014975;28;20400;-76
2023/04/05 01:22:57;;;;;;;1999.90;999.90;;;4.80;99.90;;;;;;5014920;28;20775;-75
2023/04/05 01:25:44;;;;;;;1999.90;999.90;;;4.70;99.90;;;;;;5014882;28;20458;-76
2023/04/05 01:28:09;;;;;;;1999.90;999.90;;;4.70;99.90;;;;;;5014623;28;20859;-75
2023/04/05 01:30:38;;;;;;;1999.90;999.90;;;4.70;99.90;;;;;;5014613;28;20435;-75
2023/04/05 01:33:10;;;;;;;1999.90;999.90;;;4.70;99.90;;;;;;5012993;28;20177;-77
2023/04/05 01:35:49;;;;;;;1999.90;999.90;;;4.70;99.90;;;;;;5014542;28;20905;-75
2023/04/05 01:38:21;;;;;;;1999.90;999.90;;;4.70;99.90;;;;;;5014527;28;20419;-76
2023/04/05 01:40:47;;;;;;;1999.90;999.90;;;4.80;99.90;;;;;;5014897;28;20925;-77
2023/04/05 01:43:14;;;;;;;1999.90;999.90;;;4.80;99.90;;;;;;5014181;28;20419;-76
2023/04/05 01:45:40;;;;;;;1999.90;999.90;;;4.70;99.90;;;;;;5014381;28;20432;-75
2023/04/05 01:48:06;;;;;;;1999.90;999.90;;;4.70;99.90;;;;;;5014334;28;20435;-75
2023/04/05 01:50:32;;;;;;;1999.90;999.90;;;4.70;99.90;;;;;;5014266;28;20400;-75
2023/04/05 01:52:57;;;;;;;1999.90;999.90;;;4.70;99.90;;;;;;5013974;28;20227;-75
2023/04/05 01:55:23;;;;;;;1999.90;999.90;;;4.70;99.90;;;;;;5014353;28;20168;-75
2023/04/05 01:57:49;;;;;;;1999.90;999.90;;;4.80;99.90;;;;;;5013983;28;20197;-76
2023/04/05 02:00:15;;;;;;;1999.90;999.90;;;4.80;99.90;;;;;;5014184;28;20228;-75
2023/04/05 02:02:40;;;;;;;1999.90;999.90;;;4.70;99.90;;;;;;5014247;28;20558;-75
2023/04/05 02:05:06;;;;;;;1999.90;999.90;;;5.30;99.90;;;;;;5013691;28;20462;-75
2023/04/05 02:07:32;;;;;;;1999.90;999.90;;;4.80;99.90;;;;;;5013815;28;20584;-75
2023/04/05 02:09:57;;;;;;;1999.90;999.90;;;4.80;99.90;;;;;;5014012;28;20503;-75
2023/04/05 02:12:23;;;;;;;1999.90;999.90;;;4.80;99.90;;;;;;5013794;28;20193;-76
2023/04/05 02:14:50;;;;;;;1999.90;999.90;;;4.70;99.90;;;;;;5013488;28;20165;-75
2023/04/05 02:17:16;;;;;;;1999.90;999.90;;;4.60;99.90;;;;;;5013672;28;20239;-75
2023/04/05 02:19:45;;;;;;;1999.90;999.90;;;4.50;99.90;;;;;;5013763;28;20438;-75
2023/04/05 02:22:11;;;;;;;1999.90;999.90;;;4.40;99.90;;;;;;5013935;28;20495;-75
2023/04/05 02:24:37;;;;;;;1999.90;999.90;;;4.40;99.90;;;;;;5013377;28;20412;-75
2023/04/05 02:27:02;;;;;;;1999.90;999.90;;;4.30;99.90;;;;;;5013445;28;20836;-75
2023/04/05 02:29:28;;;;;;;1999.90;999.90;;;4.30;99.90;;;;;;5013438;28;20235;-75
2023/04/05 02:31:54;;;;;;;1999.90;999.90;;;4.30;99.90;;;;;;5013584;28;20663;-76
2023/04/05 02:34:21;;;;;;;1999.90;999.90;;;4.40;99.90;;;;;;5012847;28;20171;-75
2023/04/05 02:36:50;;;;;;;1999.90;999.90;;;4.30;99.90;;;;;;5013388;28;20408;-75
2023/04/05 02:39:15;;;;;;;1999.90;999.90;;;4.30;99.90;;;;;;5013564;28;20427;-75
2023/04/05 02:41:41;;;;;;;1999.90;999.90;;;4.30;99.90;;;;;;5013456;28;20419;-75
2023/04/05 02:44:07;;;;;;;1999.90;999.90;;;4.20;99.90;;;;;;5012780;28;20494;-75
2023/04/05 02:46:34;;;;;;;1999.90;999.90;;;4.20;99.90;;;;;;5013117;28;20569;-74
2023/04/05 02:49:00;;;;;;;1999.90;999.90;;;4.20;99.90;;;;;;5013227;28;20550;-76
2023/04/05 02:51:25;;;;;;;1999.90;999.90;;;4.10;99.90;;;;;;5013139;28;20451;-75
2023/04/05 02:53:51;;;;;;;1999.90;999.90;;;4.10;99.90;;;;;;5012733;28;20585;-75
2023/04/05 02:56:17;;;;;;;1999.90;999.90;;;4.00;99.90;;;;;;5012890;28;20158;-75
2023/04/05 02:58:44;;;;;;;1999.90;999.90;;;4.00;99.90;;;;;;5012948;28;20451;-74
2023/04/05 03:01:10;;;;;;;1999.90;999.90;;;4.00;99.90;;;;;;5013012;28;20455;-75
2023/04/05 03:03:36;;;;;;;1999.90;999.90;;;3.90;99.90;;;;;;5012369;28;20435;-75
2023/04/05 03:06:12;;;;;;;1999.90;999.90;;;3.90;99.90;;;;;;5012798;28;20603;-75
2023/04/05 03:08:47;;;;;;;1999.90;999.90;;;3.80;99.90;;;;;;5012733;28;20444;-75
2023/04/05 03:11:13;;;;;;;1999.90;999.90;;;3.80;99.90;;;;;;5012724;28;20463;-75
2023/04/05 03:13:39;;;;;;;1999.90;999.90;;;3.80;99.90;;;;;;5012448;28;20408;-75
2023/04/05 03:16:05;;;;;;;1999.90;999.90;;;3.70;99.90;;;;;;5012562;28;20415;-75
2023/04/05 03:18:31;;;;;;;1999.90;999.90;;;3.60;99.90;;;;;;5012516;28;20805;-74
2023/04/05 03:20:57;;;;;;;1999.90;999.90;;;3.50;99.90;;;;;;5012694;28;20482;-74
2023/04/05 03:23:28;;;;;;;1999.90;999.90;;;3.60;99.90;;;;;;5012200;28;20173;-75
2023/04/05 03:26:00;;;;;;;1999.90;999.90;;;3.50;99.90;;;;;;5012475;28;20416;-75
2023/04/05 03:28:26;;;;;;;1999.90;999.90;;;3.50;99.90;;;;;;5012541;28;20428;-75
2023/04/05 03:30:52;;;;;;;1999.90;999.90;;;3.40;99.90;;;;;;5012897;28;20544;-74
2023/04/05 03:33:19;;;;;;;1999.90;999.90;;;3.30;99.90;;;;;;5012137;28;20447;-75
2023/04/05 03:35:45;;;;;;;1999.90;999.90;;;3.40;99.90;;;;;;5012774;28;20541;-75
2023/04/05 03:38:11;;;;;;;1999.90;999.90;;;3.30;99.90;;;;;;5012275;28;20454;-75
2023/04/05 03:40:36;;;;;;;1999.90;999.90;;;3.40;99.90;;;;;;5012396;28;20469;-75
2023/04/05 03:43:02;;;;;;;1999.90;999.90;;;3.40;99.90;;;;;;5011899;28;20176;-75
2023/04/05 03:45:30;;;;;;;1999.90;999.90;;;3.30;99.90;;;;;;5012335;28;20196;-74
2023/04/05 03:47:57;;;;;;;1999.90;999.90;;;3.20;99.90;;;;;;5012026;28;20651;-75
2023/04/05 03:50:25;;;;;;;1999.90;999.90;;;3.10;99.90;;;;;;5012265;28;20407;-75
2023/04/05 03:52:51;;;;;;;1999.90;999.90;;;3.00;99.90;;;;;;5012203;28;20462;-75
2023/04/05 03:55:16;;;;;;;1999.90;999.90;;;2.90;99.90;;;;;;5011799;28;20416;-74
2023/04/05 03:57:42;;;;;;;1999.90;999.90;;;2.90;99.90;;;;;;5011249;28;20582;-74
2023/04/05 04:00:13;;;;;;;1999.90;999.90;;;2.80;99.90;;;;;;5012225;28;20173;-75
2023/04/05 04:02:48;;;;;;;1999.90;999.90;;;2.70;99.90;;;;;;5012092;28;20925;-75
2023/04/05 04:05:15;;;;;;;1999.90;999.90;;;2.70;99.90;;;;;;5011620;28;20794;-75
2023/04/05 04:07:42;;;;;;;1999.90;999.90;;;2.60;99.90;;;;;;5011687;28;20446;-75
2023/04/05 04:10:09;;;;;;;1999.90;999.90;;;2.60;99.90;;;;;;5012119;28;20173;-75
2023/04/05 04:12:35;;;;;;;1999.90;999.90;;;2.70;99.90;;;;;;5011980;28;20462;-75
2023/04/05 04:15:01;;;;;;;1999.90;999.90;;;2.60;99.90;;;;;;5011632;28;20404;-75
2023/04/05 04:17:31;;;;;;;1999.90;999.90;;;2.50;99.90;;;;;;5011716;28;20442;-75
2023/04/05 04:19:58;;;;;;;1999.90;999.90;;;2.40;99.90;;;;;;5012040;28;20211;-75
2023/04/05 04:22:25;;;;;;;1999.90;999.90;;;2.40;99.90;;;;;;5012045;28;20416;-75
2023/04/05 04:24:54;;;;;;;1999.90;999.90;;;2.30;99.90;;;;;;5011578;28;20203;-75
2023/04/05 04:27:19;;;;;;;1999.90;999.90;;;2.30;99.90;;;;;;5011538;28;20205;-74
2023/04/05 04:29:48;;;;;;;1999.90;999.90;;;2.10;99.90;;;;;;5011853;28;20407;-75
2023/04/05 04:32:25;;;;;;;1999.90;999.90;;;2.10;99.90;;;;;;5011629;28;20566;-75
2023/04/05 04:34:54;;;;;;;1999.90;999.90;;;2.10;99.90;;;;;;5011341;28;20253;-75
2023/04/05 04:37:21;;;;;;;1999.90;999.90;;;2.10;99.90;;;;;;5011574;28;20689;-75
2023/04/05 04:39:47;;;;;;;1999.90;999.90;;;2.70;99.90;;;;;;5011878;28;20838;-74
2023/04/05 04:42:21;;;;;;;1999.90;999.90;;;1.90;99.90;;;;;;5011775;28;20515;-75
2023/04/05 04:44:47;;;;;;;1999.90;999.90;;;1.90;99.90;;;;;;5011301;28;20949;-74
2023/04/05 04:47:16;;;;;;;1999.90;999.90;;;1.90;99.90;;;;;;5011452;28;20424;-74
2023/04/05 04:49:42;;;;;;;1999.90;999.90;;;1.90;99.90;;;;;;5011644;28;20495;-74
2023/04/05 04:52:08;;;;;;;1999.90;999.90;;;1.80;99.90;;;;;;5011671;28;20193;-74
2023/04/05 04:54:35;;;;;;;1999.90;999.90;;;1.90;99.90;;;;;;5011196;28;20169;-74
2023/04/05 04:57:01;;;;;;;1999.90;999.90;;;1.80;99.90;;;;;;5011376;28;20823;-75
2023/04/05 04:59:28;;;;;;;1999.90;999.90;;;1.80;99.90;;;;;;5011654;28;20507;-75
2023/04/05 05:01:53;;;;;;;1999.90;999.90;;;1.80;99.90;;;;;;5011490;28;20647;-75
2023/04/05 05:04:19;;;;;;;1999.90;999.90;;;1.80;99.90;;;;;;5011076;28;20412;-75
2023/04/05 05:06:44;;;;;;;1999.90;999.90;;;1.80;99.90;;;;;;5011386;28;20205;-75
2023/04/05 05:09:10;;;;;;;1999.90;999.90;;;1.80;99.90;;;;;;5014561;28;20287;-75
2023/04/05 05:11:36;;;;;;;1999.90;999.90;;;1.70;99.90;;;;;;5014952;28;20208;-74
2023/04/05 05:14:01;;;;;;;1999.90;999.90;;;1.70;99.90;;;;;;5014496;28;20165;-75
2023/04/05 05:16:27;;;;;;;1999.90;999.90;;;1.70;99.90;;;;;;5014716;28;20172;-74
2023/04/05 05:18:54;;;;;;;1999.90;999.90;;;1.70;99.90;;;;;;5014836;28;20189;-75
2023/04/05 05:21:19;;;;;;;1999.90;999.90;;;1.70;99.90;;;;;;5014913;28;20583;-75
2023/04/05 05:23:45;;;;;;;1999.90;999.90;;;1.70;99.90;;;;;;5014307;28;20177;-74
2023/04/05 05:26:13;;;;;;;1999.90;999.90;;;1.70;99.90;;;;;;5014567;28;20180;-74
2023/04/05 05:28:39;;;;;;;1999.90;999.90;;;1.70;99.90;;;;;;5014631;28;20435;-75
2023/04/05 05:31:05;;;;;;;1999.90;999.90;;;1.70;99.90;;;;;;5014480;28;20287;-74
2023/04/05 05:33:30;;;;;;;1999.90;999.90;;;1.70;99.90;;;;;;5014109;28;20256;-75
2023/04/05 05:35:56;;;;;;;1999.90;999.90;;;1.80;99.90;;;;;;5014415;28;20201;-75
2023/04/05 05:38:22;;;;;;;1999.90;999.90;;;1.70;99.90;;;;;;5014529;28;20750;-75
2023/04/05 05:40:53;;;;;;;1999.90;999.90;;;1.70;99.90;;;;;;5014393;28;20408;-74
2023/04/05 05:43:19;;;;;;;1999.90;999.90;;;1.70;99.90;;;;;;5014023;28;20260;-74
2023/04/05 05:45:45;;;;;;;1999.90;999.90;;;1.70;99.90;;;;;;5014277;28;20172;-75
2023/04/05 05:48:10;;;;;;;1999.90;999.90;;;1.70;99.90;;;;;;5014085;28;20784;-75
2023/04/05 05:50:38;;;;;;;1999.90;999.90;;;1.80;99.90;;;;;;5014262;28;20240;-75
2023/04/05 05:53:03;;;;;;;1999.90;999.90;;;1.80;99.90;;;;;;5013736;28;20542;-74
2023/04/05 05:55:29;;;;;;;1999.90;999.90;;;1.80;99.90;;;;;;5014237;28;20177;-74
2023/04/05 05:57:55;;;;;;;1999.90;999.90;;;1.90;99.90;;;;;;5013937;28;20189;-74
2023/04/05 06:00:21;;;;;;;1999.90;999.90;;;1.90;99.90;;;;;;5014140;28;20698;-74
2023/04/05 06:02:47;;;;;;;1999.90;999.90;;;1.90;99.90;;;;;;5014087;28;20233;-74
2023/04/05 06:05:13;;;;;;;1999.90;999.90;;;1.90;99.90;;;;;;5013515;28;20178;-75
2023/04/05 06:07:38;;;;;;;1999.90;999.90;;;2.00;99.90;;;;;;5013629;28;20232;-74
2023/04/05 06:10:05;;;;;;;1999.90;999.90;;;2.10;99.90;;;;;;5013924;28;20173;-74
2023/04/05 06:12:30;;;;;;;1999.90;999.90;;;2.10;99.90;;;;;;5013920;28;20255;-74
2023/04/05 06:14:56;;;;;;;1999.90;999.90;;;2.10;99.90;;;;;;5013284;28;20639;-75
2023/04/05 06:17:22;;;;;;;1999.90;999.90;;;2.20;99.90;;;;;;5013585;28;20191;-74
2023/04/05 06:19:47;;;;;;;1999.90;999.90;;;2.30;99.90;;;;;;5013155;28;20173;-74
2023/04/05 06:22:13;;;;;;;1999.90;999.90;;;2.30;99.90;;;;;;5013736;28;20175;-74
2023/04/05 06:24:38;;;;;;;1999.90;999.90;;;2.40;99.90;;;;;;5013070;28;20173;-74
2023/04/05 06:27:04;;;;;;;1999.90;999.90;;;3.00;99.90;;;;;;5013341;28;20188;-74
2023/04/05 06:29:30;;;;;;;1999.90;999.90;;;2.50;99.90;;;;;;5013600;28;20168;-74
2023/04/05 06:31:55;;;;;;;1999.90;999.90;;;2.60;99.90;;;;;;5013508;28;20200;-74
2023/04/05 06:34:21;;;;;;;1999.90;999.90;;;2.60;99.90;;;;;;5013009;28;20546;-74
2023/04/05 06:36:48;;;;;;;1999.90;999.90;;;2.70;99.90;;;;;;5013297;28;20204;-75
2023/04/05 06:39:13;;;;;;;1999.90;999.90;;;2.80;99.90;;;;;;5013311;28;20847;-74
2023/04/05 06:41:39;;;;;;;1999.90;999.90;;;3.00;99.90;;;;;;5013364;28;20524;-74
2023/04/05 06:44:05;;;;;;;1999.90;999.90;;;3.00;99.90;;;;;;5012890;28;20176;-74
2023/04/05 06:46:31;;;;;;;1999.90;999.90;;;3.00;99.90;;;;;;5013056;28;20173;-74
2023/04/05 06:48:57;;;;;;;1999.90;999.90;;;3.00;99.90;;;;;;5013175;28;20199;-74
2023/04/05 06:51:24;;;;;;;1999.90;999.90;;;3.10;99.90;;;;;;5013132;28;20459;-74
2023/04/05 06:53:50;;;;;;;1999.90;999.90;;;3.20;99.90;;;;;;5012646;28;20448;-74
2023/04/05 06:56:15;;;;;;;1999.90;999.90;;;3.30;99.90;;;;;;5012902;28;20412;-75
2023/04/05 06:58:41;;;;;;;1999.90;999.90;;;3.40;99.90;;;;;;5013022;28;20193;-75
2023/04/05 07:01:07;;;;;;;1999.90;999.90;;;3.50;99.90;;;;;;5012983;28;20570;-74
2023/04/05 07:03:32;;;;;;;1999.90;999.90;;;3.60;99.90;;;;;;5012487;28;20176;-74
2023/04/05 07:05:59;;;;;;;1999.90;999.90;;;3.70;99.90;;;;;;5012699;28;20712;-74
2023/04/05 07:08:30;;;;;;;1999.90;999.90;;;3.80;99.90;;;;;;5012646;28;20589;-75
2023/04/05 07:10:55;;;;;;;1999.90;999.90;;;3.90;99.90;;;;;;5012798;28;20408;-74
2023/04/05 07:13:22;;;;;;;1999.90;999.90;;;3.90;99.90;;;;;;5012277;28;20816;-75
2023/04/05 07:15:48;;;;;;;1999.90;999.90;;;3.90;99.90;;;;;;5012748;28;20165;-74
2023/04/05 07:18:14;;;;;;;1999.90;999.90;;;3.90;99.90;;;;;;5012471;28;20474;-74
2023/04/05 07:20:40;;;;;;;1999.90;999.90;;;3.90;99.90;;;;;;5012658;28;20173;-74
2023/04/05 07:23:06;;;;;;;1999.90;999.90;;;4.00;99.90;;;;;;5012087;28;20439;-75
2023/04/05 07:25:32;;;;;;;1999.90;999.90;;;4.10;99.90;;;;;;5012601;28;20173;-74
2023/04/05 07:27:57;;;;;;;1999.90;999.90;;;4.20;99.90;;;;;;5011963;28;20188;-74
2023/04/05 07:30:25;;;;;;;1999.90;999.90;;;4.30;99.90;;;;;;5012209;28;20491;-74
2023/04/05 07:32:51;;;;;;;1999.90;999.90;;;4.40;99.90;;;;;;5011954;28;20698;-74
2023/04/05 07:35:16;;;;;;;1999.90;999.90;;;4.40;99.90;;;;;;5011988;28;20414;-74
2023/04/05 07:37:42;;;;;;;1999.90;999.90;;;4.50;99.90;;;;;;5012128;28;20189;-74
2023/04/05 07:40:09;;;;;;;1999.90;999.90;;;4.60;99.90;;;;;;5012372;28;20169;-75
2023/04/05 07:42:35;;;;;;;1999.90;999.90;;;4.70;99.90;;;;;;5012365;28;20187;-74
2023/04/05 07:45:01;;;;;;;1999.90;999.90;;;4.70;99.90;;;;;;5011859;28;20412;-74
2023/04/05 07:47:26;;;;;;;1999.90;999.90;;;4.90;99.90;;;;;;5012013;28;20463;-74
2023/04/05 07:49:52;;;;;;;1999.90;999.90;;;5.00;99.90;;;;;;5012257;28;20177;-74
2023/04/05 07:52:18;;;;;;;1999.90;999.90;;;5.00;99.90;;;;;;5012116;28;20664;-74
2023/04/05 07:54:44;;;;;;;1999.90;999.90;;;5.10;99.90;;;;;;5011000;28;20251;-73
2023/04/05 07:57:17;;;;;;;1999.90;999.90;;;5.20;99.90;;;;;;5005025;28;20280;-71
2023/04/05 07:59:42;;;;;;;1999.90;999.90;;;5.10;99.90;;;;;;5007642;28;20550;-71
2023/04/05 08:02:08;;;;;;;1999.90;999.90;;;5.30;99.90;;;;;;5008068;28;20503;-71
2023/04/05 08:04:34;;;;;;;1999.90;999.90;;;5.40;99.90;;;;;;5007561;28;20819;-71
2023/04/05 08:06:59;;;;;;;1999.90;999.90;;;6.00;99.90;;;;;;5007092;28;20185;-70
2023/04/05 08:09:25;;;;;;;1999.90;999.90;;;5.50;99.90;;;;;;5008274;28;20173;-70
2023/04/05 08:11:51;;;;;;;1999.90;999.90;;;5.60;99.90;;;;;;5004207;28;20201;-71
2023/04/05 08:14:17;;;;;;;1999.90;999.90;;;5.80;99.90;;;;;;5006301;28;20185;-70
2023/04/05 08:16:51;;;;;;;1999.90;999.90;;;5.90;99.90;;;;;;5008495;28;20760;-71
2023/04/05 08:19:29;;;;;;;;;;;;;;;;;;;;;
2023/04/05 08:22:19;;;;;;;1999.90;999.90;;;5.90;99.90;;;;;;5008594;28;20440;-71
2023/04/05 08:24:45;;;;;;;1999.90;999.90;;;5.70;99.90;;;;;;5007672;28;20423;-72
2023/04/05 08:27:13;;;;;;;1999.90;999.90;;;5.90;99.90;;;;;;5048887;23;20434;-73
2023/04/05 08:29:39;;;;;;;1999.90;999.90;;;6.00;99.90;;;;;;4987395;28;20200;-75
2023/04/05 08:32:05;;;;;;;1999.90;999.90;;;6.00;99.90;;;;;;4969823;28;20974;-75
2023/04/05 08:34:30;;;;;;;1999.90;999.90;;;6.00;99.90;;;;;;4987864;28;20445;-75
2023/04/05 08:36:59;;;;;;;1999.90;999.90;;;6.10;99.90;;;;;;4987417;28;20724;-75
2023/04/05 08:39:25;;;;;;;1999.90;999.90;;;6.20;99.90;;;;;;4987650;28;20169;-75
2023/04/05 08:42:03;;;;;;;1999.90;999.90;;;6.20;99.90;;;;;;4988138;28;20414;-75
2023/04/05 08:44:30;;;;;;;1999.90;999.90;;;6.20;99.90;;;;;;4991854;28;20886;-75
2023/04/05 08:46:58;;;;;;;1999.90;999.90;;;6.10;99.90;;;;;;4991238;28;20415;-75
2023/04/05 08:49:24;;;;;;;1999.90;999.90;;;6.20;99.90;;;;;;4990826;28;20412;-75
2023/04/05 08:51:50;;;;;;;1999.90;999.90;;;6.50;99.90;;;;;;4991901;28;20476;-75
2023/04/05 08:54:16;;;;;;;1999.90;999.90;;;6.50;99.90;;;;;;4991184;28;20995;-75
2023/04/05 08:56:45;;;;;;;1999.90;999.90;;;6.60;99.90;;;;;;4990594;28;20201;-75
2023/04/05 08:59:14;;;;;;;1999.90;999.90;;;6.70;99.90;;;;;;4991694;28;20190;-75
2023/04/05 09:01:45;;;;;;;1999.90;999.90;;;6.80;99.90;;;;;;4991656;28;20420;-75
2023/04/05 09:04:21;;;;;;;1999.90;999.90;;;6.90;99.90;;;;;;4990435;28;20433;-75
2023/04/05 09:06:51;;;;;;;1999.90;999.90;;;7.00;99.90;;;;;;4990902;28;20523;-75
2023/04/05 09:09:19;;;;;;;1999.90;999.90;;;7.20;99.90;;;;;;4990622;28;20852;-75
2023/04/05 09:11:45;;;;;;;1999.90;999.90;;;7.00;99.90;;;;;;4990414;28;20537;-75
2023/04/05 09:14:11;;;;;;;1999.90;999.90;;;6.90;99.90;;;;;;4979175;28;21247;-75
2023/04/05 09:16:38;;;;;;;1999.90;999.90;;;6.90;99.90;;;;;;4990051;28;20178;-75
2023/04/05 09:19:04;;;;;;;1999.90;999.90;;;6.90;99.90;;;;;;4973528;28;20570;-75
2023/04/05 09:21:50;;;;;;;1999.90;999.90;;;7.20;99.90;;;;;;4990021;28;21087;-75
2023/04/05 09:24:38;;;;;;;1999.90;999.90;;;7.20;99.90;;;;;;4990427;28;20964;-75
2023/04/05 09:27:05;;;;;;;1999.90;999.90;;;7.30;99.90;;;;;;4989021;28;20417;-75
2023/04/05 09:29:30;;;;;;;1999.90;999.90;;;7.30;99.90;;;;;;4991807;28;20415;-75
2023/04/05 09:31:56;;;;;;;1999.90;999.90;;;7.50;99.90;;;;;;4989561;28;20498;-75
2023/04/05 09:34:23;;;;;;;1999.90;999.90;;;7.60;99.90;;;;;;4988775;28;20180;-75
2023/04/05 09:36:49;;;;;;;1999.90;999.90;;;7.60;99.90;;;;;;4990598;28;20217;-75
2023/04/05 09:39:19;;;;;;;1999.90;999.90;;;8.70;99.90;;;;;;4989967;28;20429;-75
2023/04/05 09:42:10;;;;;;;1999.90;999.90;;;8.40;99.90;;;;;;4989023;28;20422;-76
2023/04/05 09:44:51;;;;;;;1999.90;999.90;;;8.70;99.90;;;;;;4989794;28;20424;-75
2023/04/05 09:47:19;;;;;;;1999.90;999.90;;;9.20;99.90;;;;;;4989396;28;20428;-75
2023/04/05 09:49:44;;;;;;;1999.90;999.90;;;8.90;99.90;;;;;;4990340;28;20973;-75
2023/04/05 09:52:21;;;;;;;1999.90;999.90;;;9.00;99.90;;;;;;4989010;28;20510;-75
2023/04/05 09:54:47;;;;;;;1999.90;999.90;;;9.20;99.90;;;;;;4987575;28;20654;-75
2023/04/05 09:57:15;;;;;;;1999.90;999.90;;;9.50;99.90;;;;;;4989787;28;20471;-76
2023/04/05 09:59:41;;;;;;;1999.90;999.90;;;9.50;99.90;;;;;;4990017;28;21005;-76
2023/04/05 10:02:09;;;;;;;1999.90;999.90;;;9.50;99.90;;;;;;4988491;28;20424;-75
2023/04/05 10:04:40;;;;;;;1999.90;999.90;;;9.60;99.90;;;;;;4989515;28;20187;-76
2023/04/05 10:07:11;;;;;;;1999.90;999.90;;;9.60;99.90;;;;;;4990269;28;20416;-76
2023/04/05 10:09:38;;;;;;;1999.90;999.90;;;9.70;99.90;;;;;;4988649;28;20413;-76
2023/04/05 10:12:05;;;;;;;1999.90;999.90;;;9.80;99.90;;;;;;4988811;28;20455;-76
2023/04/05 10:14:30;;;;;;;1999.90;999.90;;;9.80;99.90;;;;;;4989281;28;20422;-76
2023/04/05 10:17:05;;;;;;;1999.90;999.90;;;10.00;99.90;;;;;;4989157;28;20450;-75
2023/04/05 10:19:58;;;;;;;1999.90;999.90;;;10.10;97.90;;;;;;4988842;28;20256;-76
2023/04/05 10:22:32;;;;;;;1999.90;999.90;;;10.30;99.60;;;;;;4989339;28;20949;-76
2023/04/05 10:25:10;;;;;;;1999.90;999.90;;;10.50;98.40;;;;;;4988569;28;20420;-76
2023/04/05 10:27:45;;;;;;;1999.90;999.90;;;10.60;95.00;;;;;;4989858;28;20440;-76
2023/04/05 10:30:12;;;;;;;1999.90;999.90;;;10.80;97.00;;;;;;4990122;28;20500;-76
2023/04/05 10:32:59;;;;;;;1999.90;999.90;;;10.80;99.90;;;;;;4987896;28;20461;-76
2023/04/05 10:35:38;;;;;;;1999.90;999.90;;;10.80;96.40;;;;;;4989853;28;20419;-75
2023/04/05 10:38:25;;;;;;;1999.90;999.90;;;10.60;96.10;;;;;;4988949;28;20555;-76
2023/04/05 10:41:00;;;;;;;1999.90;999.90;;;10.60;98.80;;;;;;4988860;28;20504;-76
2023/04/05 10:43:26;;;;;;;1999.90;999.90;;;10.90;98.50;;;;;;4988730;28;20434;-76
2023/04/05 10:45:53;;;;;;;1999.90;999.90;;;10.70;92.20;;;;;;4988928;28;20409;-75
2023/04/05 10:48:47;;;;;;;1999.90;999.90;;;10.80;86.00;;;;;;4988272;28;20619;-75
2023/04/05 10:51:14;;;;;;;1999.90;999.90;;;10.70;87.20;;;;;;4989177;28;20464;-74
2023/04/05 10:53:40;;;;;;;1999.90;999.90;;;11.00;84.60;;;;;;4987645;28;20413;-75
2023/04/05 10:56:08;;;;;;;1999.90;999.90;;;11.00;82.90;;;;;;4987926;28;20416;-75
2023/04/05 10:58:39;;;;;;;1999.90;999.90;;;11.10;85.90;;;;;;4988140;28;20617;-75
2023/04/05 11:01:12;;;;;;;1999.90;999.90;;;11.30;84.30;;;;;;4987745;28;20475;-75
2023/04/05 11:03:46;;;;;;;1999.90;999.90;;;11.40;79.70;;;;;;4988042;28;20420;-75
2023/04/05 11:06:30;;;;;;;1999.90;999.90;;;11.40;71.50;;;;;;4987765;28;20508;-75
2023/04/05 11:08:59;;;;;;;1999.90;999.90;;;11.50;72.80;;;;;;4988122;28;20439;-75
2023/04/05 11:11:26;;;;;;;1999.90;999.90;;;11.70;78.80;;;;;;4988405;28;20514;-75
2023/04/05 11:13:56;;;;;;;1999.90;999.90;;;11.90;89.20;;;;;;4987082;28;20932;-75
2023/04/05 11:16:36;;;;;;;1999.90;999.90;;;12.00;83.40;;;;;;4987118;28;20456;-75
2023/04/05 11:19:02;;;;;;;1999.90;999.90;;;11.90;80.20;;;;;;4987756;28;20432;-74
2023/04/05 11:21:30;;;;;;;1999.90;999.90;;;11.90;72.10;;;;;;4988922;28;20420;-75
2023/04/05 11:24:02;;;;;;;1999.90;999.90;;;11.90;72.40;;;;;;4986623;28;20260;-75
2023/04/05 11:26:39;;;;;;;1999.90;999.90;;;11.80;72.70;;;;;;4990419;28;20473;-76
2023/04/05 11:29:06;;;;;;;1999.90;999.90;;;11.90;65.80;;;;;;4990585;28;20575;-78
2023/04/05 11:31:32;;;;;;;1999.90;999.90;;;12.10;65.20;;;;;;4992339;28;20461;-82
2023/04/05 11:34:11;;;;;;;1999.90;999.90;;;12.20;65.70;;;;;;4990108;28;20423;-77
2023/04/05 11:36:37;;;;;;;1999.90;999.90;;;;;;;;;;4990984;28;20726;-76
2023/04/05 11:39:19;;;;;;;1999.90;999.90;;;12.20;53.30;;;;;;4987090;28;20451;-76
2023/04/05 11:42:02;;;;;;;1999.90;999.90;;;12.20;60.20;;;;;;4988443;28;20410;-72
2023/04/05 11:44:38;;;;;;;1999.90;999.90;;;12.20;58.00;;;;;;4987688;28;20441;-74
2023/04/05 11:47:05;;;;;;;1999.90;999.90;;;12.20;50.40;;;;;;4988085;28;20417;-74
2023/04/05 11:49:32;;;;;;;1999.90;999.90;;;12.50;44.00;;;;;;4987953;28;20429;-77
2023/04/05 11:52:08;;;;;;;1999.90;999.90;;;12.60;38.80;;;;;;4989057;28;20481;-76
2023/04/05 11:54:34;;;;;;;1999.90;999.90;;;13.20;34.40;;;;;;4987761;28;20419;-73
2023/04/05 11:57:00;;;;;;;1999.90;999.90;;;14.00;28.50;;;;;;4988035;28;20450;-76
2023/04/05 11:59:39;;;;;;;1999.90;999.90;;;15.10;26.50;;;;;;4988091;28;20927;-77
2023/04/05 12:02:15;;;;;;;1999.90;999.90;;;16.00;27.70;;;;;;4986574;28;20465;-75
2023/04/05 12:04:46;;;;;;;1999.90;999.90;;;16.20;24.30;;;;;;4985522;28;20534;-76
2023/04/05 12:07:18;;;;;;;1999.90;999.90;;;17.90;23.50;;;;;;4987858;28;21013;-76
2023/04/05 12:10:12;;;;;;;1999.90;999.90;;;18.40;18.00;;;;;;4987686;28;20685;-74
2023/04/05 12:12:40;;;;;;;1999.90;999.90;;;18.70;13.20;;;;;;4988121;28;20460;-74
2023/04/05 12:15:22;;;;;;;1999.90;999.90;;;19.20;10.90;;;;;;4986791;28;20925;-74